sensor_id;sensor_type;location;lat;lon;timestamp;temperature;humidity
20827;DHT22;10574;52.508;13.236;2024-03-23T00:55:42;8.30;99.90
20827;DHT22;10574;52.508;13.236;2024-03-23T00:58:09;8.30;99.90
20827;DHT22;10574;52.508;13.236;2024-03-23T01:00:37;8.30;99.90
20827;DHT22;10574;52.508;13.236;2024-03-23T01:03:05;8.30;99.90
20827;DHT22;10574;52.508;13.236;2024-03-23T01:05:33;8.30;99.90
20827;DHT22;10574;52.508;13.236;2024-03-23T01:08:00;8.30;99.90
20827;DHT22;10574;52.508;13.236;2024-03-23T01:10:28;8.40;99.90
20827;DHT22;10574;52.508;13.236;2024-03-23T01:12:57;8.30;99.90
20827;DHT22;10574;52.508;13.236;2024-03-23T01:15:24;8.30;99.90
20827;DHT22;10574;52.508;13.236;2024-03-23T01:17:52;8.30;99.90
20827;DHT22;10574;52.508;13.236;2024-03-23T01:20:20;8.30;99.90
20827;DHT22;10574;52.508;13.236;2024-03-23T01:22:48;8.20;99.90
20827;DHT22;10574;52.508;13.236;2024-03-23T01:25:15;8.20;99.90
20827;DHT22;10574;52.508;13.236;2024-03-23T01:27:43;8.20;99.90
20827;DHT22;10574;52.508;13.236;2024-03-23T01:30:11;8.20;99.90
20827;DHT22;10574;52.508;13.236;2024-03-23T01:32:40;8.20;99.90
20827;DHT22;10574;52.508;13.236;2024-03-23T01:35:08;8.20;99.90
20827;DHT22;10574;52.508;13.236;2024-03-23T01:37:36;8.20;99.90
20827;DHT22;10574;52.508;13.236;2024-03-23T01:40:04;8.10;99.90
20827;DHT22;10574;52.508;13.236;2024-03-23T01:42:32;8.10;99.90
20827;DHT22;10574;52.508;13.236;2024-03-23T01:44:59;8.10;99.90
20827;DHT22;10574;52.508;13.236;2024-03-23T01:47:27;8.20;99.90
20827;DHT22;10574;52.508;13.236;2024-03-23T01:50:03;8.20;99.90
20827;DHT22;10574;52.508;13.236;2024-03-23T01:52:31;8.20;99.90
20827;DHT22;10574;52.508;13.236;2024-03-23T01:54:58;8.20;99.90
20827;DHT22;10574;52.508;13.236;2024-03-23T01:57:26;8.20;99.90
20827;DHT22;10574;52.508;13.236;2024-03-23T01:59:53;8.20;99.90
20827;DHT22;10574;52.508;13.236;2024-03-23T02:02:21;8.20;99.90
20827;DHT22;10574;52.508;13.236;2024-03-23T02:04:49;8.10;99.90
20827;DHT22;10574;52.508;13.236;2024-03-23T02:07:16;8.10;99.90
20827;DHT22;10574;52.508;13.236;2024-03-23T02:09:44;8.10;99.90
20827;DHT22;10574;52.508;13.236;2024-03-23T02:12:12;8.10;99.90
20827;DHT22;10574;52.508;13.236;2024-03-23T02:14:40;8.10;99.90
20827;DHT22;10574;52.508;13.236;2024-03-23T02:17:09;8.10;99.90
20827;DHT22;10574;52.508;13.236;2024-03-23T02:19:37;8.00;99.90
20827;DHT22;10574;52.508;13.236;2024-03-23T02:22:05;8.00;99.90
20827;DHT22;10574;52.508;13.236;2024-03-23T02:24:33;8.00;99.90
20827;DHT22;10574;52.508;13.236;2024-03-23T02:27:01;8.00;99.90
20827;DHT22;10574;52.508;13.236;2024-03-23T02:29:29;8.00;99.90
20827;DHT22;10574;52.508;13.236;2024-03-23T02:31:57;8.00;99.90
20827;DHT22;10574;52.508;13.236;2024-03-23T02:34:25;8.00;99.90
20827;DHT22;10574;52.508;13.236;2024-03-23T02:36:53;8.10;99.90
20827;DHT22;10574;52.508;13.236;2024-03-23T02:39:20;8.00;99.90
20827;DHT22;10574;52.508;13.236;2024-03-23T02:41:48;8.00;99.90
20827;DHT22;10574;52.508;13.236;2024-03-23T02:44:16;8.00;99.90
20827;DHT22;10574;52.508;13.236;2024-03-23T02:46:43;8.00;99.90
20827;DHT22;10574;52.508;13.236;2024-03-23T02:49:11;8.00;99.90
20827;DHT22;10574;52.508;13.236;2024-03-23T02:51:39;8.00;99.90
20827;DHT22;10574;52.508;13.236;2024-03-23T02:54:07;8.00;99.90
20827;DHT22;10574;52.508;13.236;2024-03-23T02:56:35;8.00;99.90
20827;DHT22;10574;52.508;13.236;2024-03-23T02:59:02;8.00;99.90
20827;DHT22;10574;52.508;13.236;2024-03-23T03:01:30;8.00;99.90
20827;DHT22;10574;52.508;13.236;2024-03-23T03:03:58;8.00;99.90
20827;DHT22;10574;52.508;13.236;2024-03-23T03:06:26;8.00;99.90
20827;DHT22;10574;52.508;13.236;2024-03-23T03:08:54;8.00;99.90
20827;DHT22;10574;52.508;13.236;2024-03-23T03:11:21;8.00;99.90
20827;DHT22;10574;52.508;13.236;2024-03-23T03:13:49;8.00;99.90
20827;DHT22;10574;52.508;13.236;2024-03-23T03:16:17;7.90;99.90
20827;DHT22;10574;52.508;13.236;2024-03-23T03:18:44;7.90;99.90
20827;DHT22;10574;52.508;13.236;2024-03-23T03:21:13;7.90;99.90
20827;DHT22;10574;52.508;13.236;2024-03-23T03:23:40;7.90;99.90
20827;DHT22;10574;52.508;13.236;2024-03-23T03:26:09;7.90;99.90
20827;DHT22;10574;52.508;13.236;2024-03-23T03:28:37;7.90;99.90
20827;DHT22;10574;52.508;13.236;2024-03-23T03:31:04;7.90;99.90
20827;DHT22;10574;52.508;13.236;2024-03-23T03:33:32;7.80;99.90
20827;DHT22;10574;52.508;13.236;2024-03-23T03:36:00;7.90;99.90
20827;DHT22;10574;52.508;13.236;2024-03-23T03:38:29;7.90;99.90
20827;DHT22;10574;52.508;13.236;2024-03-23T03:40:56;7.80;99.90
20827;DHT22;10574;52.508;13.236;2024-03-23T03:43:25;7.90;99.90
20827;DHT22;10574;52.508;13.236;2024-03-23T03:45:56;7.80;99.90
20827;DHT22;10574;52.508;13.236;2024-03-23T03:48:24;7.80;99.90
20827;DHT22;10574;52.508;13.236;2024-03-23T03:50:53;7.80;99.90
20827;DHT22;10574;52.508;13.236;2024-03-23T03:53:20;7.80;99.90
20827;DHT22;10574;52.508;13.236;2024-03-23T03:55:48;7.80;99.90
20827;DHT22;10574;52.508;13.236;2024-03-23T03:58:16;7.80;99.90
20827;DHT22;10574;52.508;13.236;2024-03-23T04:00:43;7.80;99.90
20827;DHT22;10574;52.508;13.236;2024-03-23T04:03:11;7.80;99.90
20827;DHT22;10574;52.508;13.236;2024-03-23T04:05:39;7.70;99.90
20827;DHT22;10574;52.508;13.236;2024-03-23T04:08:07;7.70;99.90
20827;DHT22;10574;52.508;13.236;2024-03-23T04:10:35;7.60;99.90
20827;DHT22;10574;52.508;13.236;2024-03-23T04:13:03;7.60;99.90
20827;DHT22;10574;52.508;13.236;2024-03-23T04:15:31;7.60;99.90
20827;DHT22;10574;52.508;13.236;2024-03-23T04:17:58;7.60;99.90
20827;DHT22;10574;52.508;13.236;2024-03-23T04:20:26;7.50;99.90
20827;DHT22;10574;52.508;13.236;2024-03-23T04:22:54;7.50;99.90
20827;DHT22;10574;52.508;13.236;2024-03-23T04:25:21;7.50;99.90
20827;DHT22;10574;52.508;13.236;2024-03-23T04:27:49;7.50;99.90
20827;DHT22;10574;52.508;13.236;2024-03-23T04:30:17;7.40;99.90
20827;DHT22;10574;52.508;13.236;2024-03-23T04:32:44;7.40;99.90
20827;DHT22;10574;52.508;13.236;2024-03-23T04:35:12;7.40;99.90
20827;DHT22;10574;52.508;13.236;2024-03-23T04:37:40;7.40;99.90
20827;DHT22;10574;52.508;13.236;2024-03-23T04:40:08;7.40;99.90
20827;DHT22;10574;52.508;13.236;2024-03-23T04:42:36;7.40;99.90
20827;DHT22;10574;52.508;13.236;2024-03-23T04:45:04;7.40;99.90
20827;DHT22;10574;52.508;13.236;2024-03-23T04:47:33;7.40;99.90
20827;DHT22;10574;52.508;13.236;2024-03-23T04:50:03;7.30;99.90
20827;DHT22;10574;52.508;13.236;2024-03-23T04:52:31;7.40;99.90
20827;DHT22;10574;52.508;13.236;2024-03-23T04:54:58;7.30;99.90
20827;DHT22;10574;52.508;13.236;2024-03-23T04:57:26;7.30;99.90
20827;DHT22;10574;52.508;13.236;2024-03-23T04:59:53;7.30;99.90
20827;DHT22;10574;52.508;13.236;2024-03-23T05:02:21;7.30;99.90
20827;DHT22;10574;52.508;13.236;2024-03-23T05:04:49;7.30;99.90
20827;DHT22;10574;52.508;13.236;2024-03-23T05:07:17;7.20;99.90
20827;DHT22;10574;52.508;13.236;2024-03-23T05:09:44;7.20;99.90
20827;DHT22;10574;52.508;13.236;2024-03-23T05:12:12;7.20;99.90
20827;DHT22;10574;52.508;13.236;2024-03-23T05:14:40;7.20;99.90
20827;DHT22;10574;52.508;13.236;2024-03-23T05:17:08;7.10;99.90
20827;DHT22;10574;52.508;13.236;2024-03-23T05:19:35;7.10;99.90
20827;DHT22;10574;52.508;13.236;2024-03-23T05:22:03;7.00;99.90
20827;DHT22;10574;52.508;13.236;2024-03-23T05:24:31;7.00;99.90
20827;DHT22;10574;52.508;13.236;2024-03-23T05:26:58;7.00;99.90
20827;DHT22;10574;52.508;13.236;2024-03-23T05:29:26;7.00;99.90
20827;DHT22;10574;52.508;13.236;2024-03-23T05:31:56;7.00;99.90
20827;DHT22;10574;52.508;13.236;2024-03-23T05:34:23;7.00;99.90
20827;DHT22;10574;52.508;13.236;2024-03-23T05:36:51;7.00;99.90
20827;DHT22;10574;52.508;13.236;2024-03-23T05:39:19;7.00;99.90
20827;DHT22;10574;52.508;13.236;2024-03-23T05:41:49;7.00;99.90
20827;DHT22;10574;52.508;13.236;2024-03-23T05:44:16;7.00;99.90
20827;DHT22;10574;52.508;13.236;2024-03-23T05:46:45;7.00;99.90
20827;DHT22;10574;52.508;13.236;2024-03-23T05:49:16;7.00;99.90
20827;DHT22;10574;52.508;13.236;2024-03-23T05:51:44;7.00;99.90
20827;DHT22;10574;52.508;13.236;2024-03-23T05:54:12;7.00;99.90
20827;DHT22;10574;52.508;13.236;2024-03-23T05:56:39;7.00;99.90
20827;DHT22;10574;52.508;13.236;2024-03-23T05:59:07;7.00;99.90
20827;DHT22;10574;52.508;13.236;2024-03-23T06:01:35;7.00;99.90
20827;DHT22;10574;52.508;13.236;2024-03-23T06:04:05;7.00;99.90
20827;DHT22;10574;52.508;13.236;2024-03-23T06:06:33;7.00;99.90
20827;DHT22;10574;52.508;13.236;2024-03-23T06:09:00;7.10;99.90
20827;DHT22;10574;52.508;13.236;2024-03-23T06:11:28;7.00;99.90
20827;DHT22;10574;52.508;13.236;2024-03-23T06:13:56;7.00;99.90
20827;DHT22;10574;52.508;13.236;2024-03-23T06:16:24;7.10;99.90
20827;DHT22;10574;52.508;13.236;2024-03-23T06:18:52;7.10;99.90
20827;DHT22;10574;52.508;13.236;2024-03-23T06:21:21;7.10;99.90
20827;DHT22;10574;52.508;13.236;2024-03-23T06:23:52;7.10;99.90
20827;DHT22;10574;52.508;13.236;2024-03-23T06:26:20;7.10;99.90
20827;DHT22;10574;52.508;13.236;2024-03-23T06:28:48;7.10;99.90
20827;DHT22;10574;52.508;13.236;2024-03-23T06:31:15;7.10;99.90
20827;DHT22;10574;52.508;13.236;2024-03-23T06:33:43;7.10;99.90
20827;DHT22;10574;52.508;13.236;2024-03-23T06:36:11;7.10;99.90
20827;DHT22;10574;52.508;13.236;2024-03-23T06:38:39;7.20;99.90
20827;DHT22;10574;52.508;13.236;2024-03-23T06:41:07;7.10;99.90
20827;DHT22;10574;52.508;13.236;2024-03-23T06:43:35;7.10;99.90
20827;DHT22;10574;52.508;13.236;2024-03-23T06:46:03;7.20;99.90
20827;DHT22;10574;52.508;13.236;2024-03-23T06:48:31;7.20;99.90
20827;DHT22;10574;52.508;13.236;2024-03-23T06:50:59;7.20;99.90
20827;DHT22;10574;52.508;13.236;2024-03-23T06:53:27;7.20;99.90
20827;DHT22;10574;52.508;13.236;2024-03-23T06:55:54;7.30;99.90
20827;DHT22;10574;52.508;13.236;2024-03-23T06:58:24;7.30;99.90
20827;DHT22;10574;52.508;13.236;2024-03-23T07:00:52;7.30;99.90
20827;DHT22;10574;52.508;13.236;2024-03-23T07:03:20;7.20;99.90
20827;DHT22;10574;52.508;13.236;2024-03-23T07:05:48;7.30;99.90
20827;DHT22;10574;52.508;13.236;2024-03-23T07:08:16;7.30;99.90
20827;DHT22;10574;52.508;13.236;2024-03-23T07:10:46;7.30;99.90
20827;DHT22;10574;52.508;13.236;2024-03-23T07:13:14;7.30;99.90
20827;DHT22;10574;52.508;13.236;2024-03-23T07:15:42;7.30;99.90
20827;DHT22;10574;52.508;13.236;2024-03-23T07:18:09;7.40;99.90
20827;DHT22;10574;52.508;13.236;2024-03-23T07:20:37;7.40;99.90
20827;DHT22;10574;52.508;13.236;2024-03-23T07:23:05;7.30;99.90
20827;DHT22;10574;52.508;13.236;2024-03-23T07:25:32;7.30;99.90
20827;DHT22;10574;52.508;13.236;2024-03-23T07:28:00;7.30;99.90
20827;DHT22;10574;52.508;13.236;2024-03-23T07:30:28;7.30;99.90
20827;DHT22;10574;52.508;13.236;2024-03-23T07:32:55;7.30;99.90
20827;DHT22;10574;52.508;13.236;2024-03-23T07:35:23;7.30;99.90
20827;DHT22;10574;52.508;13.236;2024-03-23T07:37:51;7.30;99.90
20827;DHT22;10574;52.508;13.236;2024-03-23T07:40:18;7.20;99.90
20827;DHT22;10574;52.508;13.236;2024-03-23T07:42:46;7.20;99.90
20827;DHT22;10574;52.508;13.236;2024-03-23T07:45:17;7.20;99.90
20827;DHT22;10574;52.508;13.236;2024-03-23T07:47:45;7.20;99.90
20827;DHT22;10574;52.508;13.236;2024-03-23T07:50:12;7.30;99.90
20827;DHT22;10574;52.508;13.236;2024-03-23T07:52:41;7.30;99.90
20827;DHT22;10574;52.508;13.236;2024-03-23T07:55:09;7.20;99.90
20827;DHT22;10574;52.508;13.236;2024-03-23T07:57:37;7.20;99.90
20827;DHT22;10574;52.508;13.236;2024-03-23T08:00:05;7.30;99.90
20827;DHT22;10574;52.508;13.236;2024-03-23T08:02:33;7.30;99.90
20827;DHT22;10574;52.508;13.236;2024-03-23T08:05:01;7.00;99.90
20827;DHT22;10574;52.508;13.236;2024-03-23T08:07:28;6.90;99.90
20827;DHT22;10574;52.508;13.236;2024-03-23T08:09:56;6.80;99.90
20827;DHT22;10574;52.508;13.236;2024-03-23T08:12:25;6.80;99.90
20827;DHT22;10574;52.508;13.236;2024-03-23T08:14:53;6.70;99.90
20827;DHT22;10574;52.508;13.236;2024-03-23T08:17:30;6.70;99.90
20827;DHT22;10574;52.508;13.236;2024-03-23T08:19:57;6.60;99.90
20827;DHT22;10574;52.508;13.236;2024-03-23T08:22:25;6.60;99.90
20827;DHT22;10574;52.508;13.236;2024-03-23T08:24:53;6.60;99.90
20827;DHT22;10574;52.508;13.236;2024-03-23T08:27:20;6.50;99.90
20827;DHT22;10574;52.508;13.236;2024-03-23T08:29:48;6.40;99.90
20827;DHT22;10574;52.508;13.236;2024-03-23T08:32:16;6.40;99.90
20827;DHT22;10574;52.508;13.236;2024-03-23T08:34:43;6.30;99.90
20827;DHT22;10574;52.508;13.236;2024-03-23T08:37:11;6.20;99.90
20827;DHT22;10574;52.508;13.236;2024-03-23T08:39:39;6.10;99.90
20827;DHT22;10574;52.508;13.236;2024-03-23T08:42:07;6.00;99.90
20827;DHT22;10574;52.508;13.236;2024-03-23T08:44:35;6.00;99.90
20827;DHT22;10574;52.508;13.236;2024-03-23T08:47:02;6.00;99.90
20827;DHT22;10574;52.508;13.236;2024-03-23T08:49:30;6.00;99.90
20827;DHT22;10574;52.508;13.236;2024-03-23T08:51:58;6.00;99.90
20827;DHT22;10574;52.508;13.236;2024-03-23T08:54:25;6.00;99.90
20827;DHT22;10574;52.508;13.236;2024-03-23T08:56:54;5.90;99.90
20827;DHT22;10574;52.508;13.236;2024-03-23T08:59:21;5.90;99.90
20827;DHT22;10574;52.508;13.236;2024-03-23T09:01:50;5.90;99.90
20827;DHT22;10574;52.508;13.236;2024-03-23T09:04:18;5.80;99.90
20827;DHT22;10574;52.508;13.236;2024-03-23T09:06:45;5.80;99.90
20827;DHT22;10574;52.508;13.236;2024-03-23T09:09:13;5.70;99.90
20827;DHT22;10574;52.508;13.236;2024-03-23T09:11:41;5.80;99.90
20827;DHT22;10574;52.508;13.236;2024-03-23T09:14:08;5.80;99.90
20827;DHT22;10574;52.508;13.236;2024-03-23T09:16:36;5.80;99.90
20827;DHT22;10574;52.508;13.236;2024-03-23T09:19:04;5.80;99.90
20827;DHT22;10574;52.508;13.236;2024-03-23T09:21:31;5.90;99.90
20827;DHT22;10574;52.508;13.236;2024-03-23T09:23:59;5.80;99.90
20827;DHT22;10574;52.508;13.236;2024-03-23T09:26:27;5.80;99.90
20827;DHT22;10574;52.508;13.236;2024-03-23T09:28:56;5.90;99.90
20827;DHT22;10574;52.508;13.236;2024-03-23T09:31:24;5.90;99.90
20827;DHT22;10574;52.508;13.236;2024-03-23T09:33:51;5.90;99.90
20827;DHT22;10574;52.508;13.236;2024-03-23T09:36:19;5.90;99.90
20827;DHT22;10574;52.508;13.236;2024-03-23T09:38:47;5.90;99.90
20827;DHT22;10574;52.508;13.236;2024-03-23T09:41:14;5.90;99.90
20827;DHT22;10574;52.508;13.236;2024-03-23T09:43:42;5.90;99.90
20827;DHT22;10574;52.508;13.236;2024-03-23T09:46:10;5.80;99.90
20827;DHT22;10574;52.508;13.236;2024-03-23T09:48:39;5.80;99.90
20827;DHT22;10574;52.508;13.236;2024-03-23T09:51:07;5.80;99.90
20827;DHT22;10574;52.508;13.236;2024-03-23T09:53:35;5.80;99.90
20827;DHT22;10574;52.508;13.236;2024-03-23T09:56:05;5.70;99.90
20827;DHT22;10574;52.508;13.236;2024-03-23T09:58:33;5.70;99.90
20827;DHT22;10574;52.508;13.236;2024-03-23T10:01:01;5.60;99.90
20827;DHT22;10574;52.508;13.236;2024-03-23T10:03:28;5.60;99.90
20827;DHT22;10574;52.508;13.236;2024-03-23T10:06:03;5.60;99.90
20827;DHT22;10574;52.508;13.236;2024-03-23T10:08:31;5.60;99.90
20827;DHT22;10574;52.508;13.236;2024-03-23T10:11:15;5.60;99.90
20827;DHT22;10574;52.508;13.236;2024-03-23T10:13:41;5.70;99.90
20827;DHT22;10574;52.508;13.236;2024-03-23T10:16:10;5.80;99.90
20827;DHT22;10574;52.508;13.236;2024-03-23T10:18:39;5.90;99.90
20827;DHT22;10574;52.508;13.236;2024-03-23T10:21:09;5.90;99.90
20827;DHT22;10574;52.508;13.236;2024-03-23T10:23:40;5.90;99.90
20827;DHT22;10574;52.508;13.236;2024-03-23T10:26:19;5.90;99.90
20827;DHT22;10574;52.508;13.236;2024-03-23T10:28:58;5.90;99.90
20827;DHT22;10574;52.508;13.236;2024-03-23T10:31:34;5.90;99.90
20827;DHT22;10574;52.508;13.236;2024-03-23T10:34:06;5.90;99.90
20827;DHT22;10574;52.508;13.236;2024-03-23T10:36:34;6.00;99.90
20827;DHT22;10574;52.508;13.236;2024-03-23T10:39:05;6.00;99.90
20827;DHT22;10574;52.508;13.236;2024-03-23T10:41:34;6.00;99.90
20827;DHT22;10574;52.508;13.236;2024-03-23T10:44:03;6.00;99.90
20827;DHT22;10574;52.508;13.236;2024-03-23T10:46:32;6.00;99.90
20827;DHT22;10574;52.508;13.236;2024-03-23T10:49:00;6.10;99.90
20827;DHT22;10574;52.508;13.236;2024-03-23T10:51:27;6.10;99.90
20827;DHT22;10574;52.508;13.236;2024-03-23T10:53:56;6.10;99.90
20827;DHT22;10574;52.508;13.236;2024-03-23T10:56:25;6.10;99.90
20827;DHT22;10574;52.508;13.236;2024-03-23T10:58:55;6.10;99.90
20827;DHT22;10574;52.508;13.236;2024-03-23T11:01:23;6.20;99.90
20827;DHT22;10574;52.508;13.236;2024-03-23T11:03:52;6.30;99.90
20827;DHT22;10574;52.508;13.236;2024-03-23T11:06:42;6.30;99.90
20827;DHT22;10574;52.508;13.236;2024-03-23T11:15:04;6.50;99.90
20827;DHT22;10574;52.508;13.236;2024-03-23T11:17:31;6.50;99.90
20827;DHT22;10574;52.508;13.236;2024-03-23T11:20:03;6.50;99.90
20827;DHT22;10574;52.508;13.236;2024-03-23T11:25:14;6.50;99.90
20827;DHT22;10574;52.508;13.236;2024-03-23T11:27:44;6.60;99.90
20827;DHT22;10574;52.508;13.236;2024-03-23T11:30:30;6.60;99.90
20827;DHT22;10574;52.508;13.236;2024-03-23T11:32:58;6.60;99.90
20827;DHT22;10574;52.508;13.236;2024-03-23T11:35:40;6.60;99.90
20827;DHT22;10574;52.508;13.236;2024-03-23T11:38:12;6.60;99.90
20827;DHT22;10574;52.508;13.236;2024-03-23T11:40:45;6.70;99.90
20827;DHT22;10574;52.508;13.236;2024-03-23T11:43:15;6.80;99.90
20827;DHT22;10574;52.508;13.236;2024-03-23T11:45:50;7.00;99.90
20827;DHT22;10574;52.508;13.236;2024-03-23T11:48:23;7.00;99.90
20827;DHT22;10574;52.508;13.236;2024-03-23T11:50:54;7.10;99.90
20827;DHT22;10574;52.508;13.236;2024-03-23T11:53:22;7.20;99.90
20827;DHT22;10574;52.508;13.236;2024-03-23T11:55:58;7.20;99.90
20827;DHT22;10574;52.508;13.236;2024-03-23T11:58:27;7.20;99.90
20827;DHT22;10574;52.508;13.236;2024-03-23T12:01:04;7.20;99.90
20827;DHT22;10574;52.508;13.236;2024-03-23T12:03:32;7.10;99.90
20827;DHT22;10574;52.508;13.236;2024-03-23T12:06:01;6.90;99.90
20827;DHT22;10574;52.508;13.236;2024-03-23T12:08:31;6.90;99.90
20827;DHT22;10574;52.508;13.236;2024-03-23T12:11:06;6.80;99.90
20827;DHT22;10574;52.508;13.236;2024-03-23T12:13:35;6.80;99.90
20827;DHT22;10574;52.508;13.236;2024-03-23T12:16:13;6.90;99.90
20827;DHT22;10574;52.508;13.236;2024-03-23T12:18:43;7.00;99.90
20827;DHT22;10574;52.508;13.236;2024-03-23T12:21:11;7.00;99.90
20827;DHT22;10574;52.508;13.236;2024-03-23T12:23:40;7.00;99.90
20827;DHT22;10574;52.508;13.236;2024-03-23T12:26:08;7.00;99.90
20827;DHT22;10574;52.508;13.236;2024-03-23T12:28:36;7.10;99.90
20827;DHT22;10574;52.508;13.236;2024-03-23T12:31:04;6.90;99.90
20827;DHT22;10574;52.508;13.236;2024-03-23T12:33:32;6.70;99.90
20827;DHT22;10574;52.508;13.236;2024-03-23T12:36:00;6.50;99.90
20827;DHT22;10574;52.508;13.236;2024-03-23T12:38:27;6.50;99.90
20827;DHT22;10574;52.508;13.236;2024-03-23T12:40:55;6.30;99.90
20827;DHT22;10574;52.508;13.236;2024-03-23T12:43:23;6.20;99.90
20827;DHT22;10574;52.508;13.236;2024-03-23T12:45:50;6.30;99.90
20827;DHT22;10574;52.508;13.236;2024-03-23T12:48:18;6.40;99.90
20827;DHT22;10574;52.508;13.236;2024-03-23T12:50:46;6.60;99.90
20827;DHT22;10574;52.508;13.236;2024-03-23T12:53:14;6.70;99.90
20827;DHT22;10574;52.508;13.236;2024-03-23T12:55:41;6.90;99.90
20827;DHT22;10574;52.508;13.236;2024-03-23T12:58:09;7.10;99.90
20827;DHT22;10574;52.508;13.236;2024-03-23T13:00:37;7.30;99.90
20827;DHT22;10574;52.508;13.236;2024-03-23T13:03:04;7.30;99.90
20827;DHT22;10574;52.508;13.236;2024-03-23T13:05:32;7.40;99.90
20827;DHT22;10574;52.508;13.236;2024-03-23T13:08:00;7.50;99.90
20827;DHT22;10574;52.508;13.236;2024-03-23T13:10:27;7.60;99.90
20827;DHT22;10574;52.508;13.236;2024-03-23T13:12:55;7.60;99.90
20827;DHT22;10574;52.508;13.236;2024-03-23T13:15:23;7.80;99.90
20827;DHT22;10574;52.508;13.236;2024-03-23T13:17:51;7.90;99.90
20827;DHT22;10574;52.508;13.236;2024-03-23T13:20:20;8.10;99.90
20827;DHT22;10574;52.508;13.236;2024-03-23T13:22:48;8.30;99.90
20827;DHT22;10574;52.508;13.236;2024-03-23T13:25:17;8.60;99.90
20827;DHT22;10574;52.508;13.236;2024-03-23T13:27:45;8.70;99.90
20827;DHT22;10574;52.508;13.236;2024-03-23T13:30:13;8.70;99.90
20827;DHT22;10574;52.508;13.236;2024-03-23T13:32:43;8.90;99.90
20827;DHT22;10574;52.508;13.236;2024-03-23T13:35:11;8.90;99.90
20827;DHT22;10574;52.508;13.236;2024-03-23T13:37:38;8.90;99.90
20827;DHT22;10574;52.508;13.236;2024-03-23T13:40:08;8.90;99.90
20827;DHT22;10574;52.508;13.236;2024-03-23T13:42:36;8.90;99.90
20827;DHT22;10574;52.508;13.236;2024-03-23T13:45:04;8.90;99.90
20827;DHT22;10574;52.508;13.236;2024-03-23T13:47:32;8.90;99.90
20827;DHT22;10574;52.508;13.236;2024-03-23T13:50:00;8.90;99.90
20827;DHT22;10574;52.508;13.236;2024-03-23T13:52:28;9.00;99.90
20827;DHT22;10574;52.508;13.236;2024-03-23T13:54:57;8.90;99.90
20827;DHT22;10574;52.508;13.236;2024-03-23T13:57:24;9.00;99.90
20827;DHT22;10574;52.508;13.236;2024-03-23T13:59:52;9.20;99.90
20827;DHT22;10574;52.508;13.236;2024-03-23T14:02:20;9.40;99.90
20827;DHT22;10574;52.508;13.236;2024-03-23T14:04:48;9.30;99.90
20827;DHT22;10574;52.508;13.236;2024-03-23T14:07:15;9.40;99.90
20827;DHT22;10574;52.508;13.236;2024-03-23T14:09:44;9.40;99.90
20827;DHT22;10574;52.508;13.236;2024-03-23T14:12:12;9.20;99.90
20827;DHT22;10574;52.508;13.236;2024-03-23T14:14:40;9.20;99.90
20827;DHT22;10574;52.508;13.236;2024-03-23T14:17:08;8.90;99.90
20827;DHT22;10574;52.508;13.236;2024-03-23T14:19:35;8.80;99.90
20827;DHT22;10574;52.508;13.236;2024-03-23T14:22:03;8.60;99.90
20827;DHT22;10574;52.508;13.236;2024-03-23T14:24:35;8.50;99.90
20827;DHT22;10574;52.508;13.236;2024-03-23T14:27:03;8.50;99.90
20827;DHT22;10574;52.508;13.236;2024-03-23T14:29:33;8.50;99.90
20827;DHT22;10574;52.508;13.236;2024-03-23T14:32:01;8.40;99.90
20827;DHT22;10574;52.508;13.236;2024-03-23T14:34:28;8.40;99.90
20827;DHT22;10574;52.508;13.236;2024-03-23T14:36:56;8.40;99.90
20827;DHT22;10574;52.508;13.236;2024-03-23T14:39:24;8.40;99.90
20827;DHT22;10574;52.508;13.236;2024-03-23T14:41:52;8.20;99.90
20827;DHT22;10574;52.508;13.236;2024-03-23T14:44:19;7.90;99.90
20827;DHT22;10574;52.508;13.236;2024-03-23T14:46:47;7.50;99.90
20827;DHT22;10574;52.508;13.236;2024-03-23T14:49:15;7.20;99.90
20827;DHT22;10574;52.508;13.236;2024-03-23T14:51:46;7.00;99.90
20827;DHT22;10574;52.508;13.236;2024-03-23T14:54:13;6.90;99.90
20827;DHT22;10574;52.508;13.236;2024-03-23T14:56:41;7.00;99.90
20827;DHT22;10574;52.508;13.236;2024-03-23T14:59:09;6.90;99.90
20827;DHT22;10574;52.508;13.236;2024-03-23T15:01:37;6.80;99.90
20827;DHT22;10574;52.508;13.236;2024-03-23T15:04:04;6.70;99.90
20827;DHT22;10574;52.508;13.236;2024-03-23T15:06:32;6.90;99.90
20827;DHT22;10574;52.508;13.236;2024-03-23T15:09:00;7.10;99.90
20827;DHT22;10574;52.508;13.236;2024-03-23T15:11:29;7.20;99.90
20827;DHT22;10574;52.508;13.236;2024-03-23T15:13:56;7.20;99.90
20827;DHT22;10574;52.508;13.236;2024-03-23T15:16:24;7.30;99.90
20827;DHT22;10574;52.508;13.236;2024-03-23T15:18:52;7.30;99.90
20827;DHT22;10574;52.508;13.236;2024-03-23T15:21:20;7.40;99.90
20827;DHT22;10574;52.508;13.236;2024-03-23T15:23:48;7.40;99.90
20827;DHT22;10574;52.508;13.236;2024-03-23T15:26:16;7.40;99.90
20827;DHT22;10574;52.508;13.236;2024-03-23T15:28:48;7.30;99.90
20827;DHT22;10574;52.508;13.236;2024-03-23T15:31:26;7.20;99.90
20827;DHT22;10574;52.508;13.236;2024-03-23T15:33:54;7.20;99.90
20827;DHT22;10574;52.508;13.236;2024-03-23T15:36:21;7.20;99.90
20827;DHT22;10574;52.508;13.236;2024-03-23T15:38:49;7.20;99.90
20827;DHT22;10574;52.508;13.236;2024-03-23T15:41:17;7.30;99.90
20827;DHT22;10574;52.508;13.236;2024-03-23T15:43:46;7.40;99.90
20827;DHT22;10574;52.508;13.236;2024-03-23T15:46:14;7.30;99.90
20827;DHT22;10574;52.508;13.236;2024-03-23T15:48:42;7.30;99.90
20827;DHT22;10574;52.508;13.236;2024-03-23T15:51:11;7.30;99.90
20827;DHT22;10574;52.508;13.236;2024-03-23T15:53:39;7.40;99.90
20827;DHT22;10574;52.508;13.236;2024-03-23T15:56:07;7.40;99.90
20827;DHT22;10574;52.508;13.236;2024-03-23T15:58:35;7.40;99.90
20827;DHT22;10574;52.508;13.236;2024-03-23T16:01:07;7.40;99.90
20827;DHT22;10574;52.508;13.236;2024-03-23T16:03:38;7.40;99.90
20827;DHT22;10574;52.508;13.236;2024-03-23T16:06:07;7.40;99.90
20827;DHT22;10574;52.508;13.236;2024-03-23T16:08:35;7.40;99.90
20827;DHT22;10574;52.508;13.236;2024-03-23T16:11:05;7.40;99.90
20827;DHT22;10574;52.508;13.236;2024-03-23T16:13:34;7.40;99.90
20827;DHT22;10574;52.508;13.236;2024-03-23T16:16:03;7.40;99.90
20827;DHT22;10574;52.508;13.236;2024-03-23T16:18:34;7.40;99.90
20827;DHT22;10574;52.508;13.236;2024-03-23T16:21:05;7.40;99.90
20827;DHT22;10574;52.508;13.236;2024-03-23T16:23:34;7.40;99.90
20827;DHT22;10574;52.508;13.236;2024-03-23T16:26:04;7.30;99.90
20827;DHT22;10574;52.508;13.236;2024-03-23T16:28:34;7.30;99.90
20827;DHT22;10574;52.508;13.236;2024-03-23T16:31:09;7.20;99.90
20827;DHT22;10574;52.508;13.236;2024-03-23T16:33:37;7.20;99.90
20827;DHT22;10574;52.508;13.236;2024-03-23T16:36:11;7.20;99.90
20827;DHT22;10574;52.508;13.236;2024-03-23T16:38:42;7.20;99.90
20827;DHT22;10574;52.508;13.236;2024-03-23T16:41:10;7.30;99.90